Aérodrome :
LOGIN :

S'inscrire | Disclaimer

   EN    FR    IT 

 










Légende :    VFR   VFR Marginal   IFR   IFR Intensif   IFR Très Intensif
Visi : 
Plafond : 
>= 8 km
>= 3000ft
5 à 8 km
1000 à 3000 ft
1500m à 5 km
500 à 1000 ft
800 à 1500m
200 à 500 ft
< 800m
< 200 ft
Symboles :   Orages  Brouillard  Fortes neiges  Fortes précipitations  Vent > 20 kt
SIGMETs :   Divers  Orages  Givrage  Turbulence  Onde Orograph.  Cendres Volcan.







- Altitude de l'aérodrome : 614 ft
- Code IATA : CRL


EBCI - Charleroi

DERNIER METAR :
  • 230550Z 11003KT 090V180 9000 NSC 05/03 Q1036 NOSIG

METARs EXPIRÉS :
  • 230520Z 11003KT 8000 NSC 05/03 Q1036 NOSIG
  • 230450Z 12004KT 7000 NSC 05/04 Q1036 NOSIG
  • 230420Z 13005KT 7000 NSC 05/04 Q1036 NOSIG
  • 230350Z 11005KT 7000 NSC 05/04 Q1036 NOSIG
  • 230320Z 10004KT 6000 NSC 06/04 Q1036 NOSIG

TAF TAF EBCI
Valide du 23 à 06h jusqu'au 24 à 12h UTC


230519Z 2306/2412 10005KT 8000 NSC
PROB30
TEMPO 2404/2407 3500 BR MIFG
Pas de NOTAMs connus pour ce terrain.



MET'MAP, la Météo Aéronautique d'un coup d'oeil ! - Copyright ORBIFLY Décembre 2007 - Disclaimer

ORBIFLY MET'MAP TEAM :

Programmation & Développement : Alexandra Zaïnal
Conception & Développement : Baudouin d'Aumeries
Co-Programmation & Développement : Marc-Olivier Méhu
Soutien technique & logistique : Manuel Goepfert

Contact : metmap@orbifly.com




SOURCES & CREDITS :

   NOAA